Time;durP1;ratioP1;P1;durP2;ratioP2;P2;SDS_P1;SDS_P2;PMS_P1;PMS_P2;Temp;Humidity;BMP_temperature;BMP_pressure;BME280_temperature;BME280_humidity;BME280_pressure;Samples;Min_cycle;Max_cycle;Signal;HPM_P1;HPM_P2
2022/12/05 00:00:49;;;;;;;20.43;15.07;;;;;;;8.92;95.73;100656.63;5053935;28;20202;-55
2022/12/05 00:03:16;;;;;;;18.87;14.90;;;;;;;8.89;95.17;100662.50;5054166;28;20192;-55
2022/12/05 00:05:43;;;;;;;18.27;14.93;;;;;;;8.87;95.48;100664.13;5053742;28;20189;-55
2022/12/05 00:08:09;;;;;;;21.87;15.20;;;;;;;8.89;95.39;100657.38;5054552;28;20192;-55
2022/12/05 00:10:36;;;;;;;21.10;14.93;;;;;;;8.95;95.90;100661.00;5053601;28;20187;-55
2022/12/05 00:13:05;;;;;;;21.43;16.47;;;;;;;8.90;95.71;100643.75;5053830;28;20666;-55
2022/12/05 00:15:37;;;;;;;25.13;18.47;;;;;;;8.97;95.67;100665.38;5053807;28;20242;-55
2022/12/05 00:18:04;;;;;;;29.10;21.03;;;;;;;9.02;95.41;100652.75;5052961;28;20219;-55
2022/12/05 00:20:31;;;;;;;22.13;17.37;;;;;;;8.99;95.22;100656.06;5053208;28;20196;-55
2022/12/05 00:22:58;;;;;;;21.93;18.00;;;;;;;9.01;95.50;100657.00;5053643;28;20191;-55
2022/12/05 00:25:24;;;;;;;31.63;22.43;;;;;;;9.00;95.44;100655.25;5053450;28;20191;-54
2022/12/05 00:27:51;;;;;;;32.17;23.67;;;;;;;9.00;95.33;100645.00;5053376;28;20211;-55
2022/12/05 00:30:20;;;;;;;26.50;19.80;;;;;;;9.01;94.92;100657.00;5053418;28;20193;-55
2022/12/05 00:32:46;;;;;;;18.53;14.73;;;;;;;9.05;94.76;100645.19;5053384;28;20195;-55
2022/12/05 00:35:13;;;;;;;16.93;13.20;;;;;;;9.09;94.75;100649.63;5053750;28;20188;-55
2022/12/05 00:37:40;;;;;;;20.03;13.90;;;;;;;9.11;94.45;100653.13;5053705;28;20249;-55
2022/12/05 00:40:08;;;;;;;15.83;12.97;;;;;;;9.09;93.95;100652.19;5053260;28;20229;-55
2022/12/05 00:42:35;;;;;;;15.43;12.13;;;;;;;9.11;94.05;100648.00;5053084;28;20670;-55
2022/12/05 00:45:01;;;;;;;15.37;13.27;;;;;;;9.13;93.99;100656.63;5053348;28;20189;-55
2022/12/05 00:47:30;;;;;;;16.40;13.20;;;;;;;9.13;93.75;100647.25;5053103;28;20223;-55
2022/12/05 00:49:56;;;;;;;15.90;13.07;;;;;;;9.19;93.79;100659.44;5052881;28;20681;-55
2022/12/05 00:52:23;;;;;;;13.37;11.40;;;;;;;9.18;93.88;100657.66;5052859;28;20303;-55
2022/12/05 00:54:50;;;;;;;15.47;12.77;;;;;;;9.21;93.75;100653.56;5052924;28;20192;-54
2022/12/05 00:57:17;;;;;;;15.83;12.73;;;;;;;9.22;93.73;100657.00;5052715;28;20207;-54
2022/12/05 00:59:44;;;;;;;15.90;12.33;;;;;;;9.18;93.54;100657.66;5052978;28;20270;-54
2022/12/05 01:02:10;;;;;;;16.23;12.37;;;;;;;9.21;93.69;100658.69;5052859;28;20191;-54
2022/12/05 01:04:39;;;;;;;13.90;10.63;;;;;;;9.22;93.62;100651.88;5052937;28;20250;-54
2022/12/05 01:07:05;;;;;;;14.53;12.10;;;;;;;9.22;93.27;100655.31;5052853;28;20196;-54
2022/12/05 01:09:32;;;;;;;14.13;12.23;;;;;;;9.21;93.84;100655.22;5053228;28;20196;-54
2022/12/05 01:11:59;;;;;;;15.67;11.80;;;;;;;9.08;93.98;100647.88;5052577;28;20195;-54
2022/12/05 01:14:26;;;;;;;16.97;12.13;;;;;;;8.98;94.53;100641.50;5052512;28;20266;-54
2022/12/05 01:16:55;;;;;;;14.50;11.47;;;;;;;8.94;94.94;100651.56;5051007;28;20189;-55
2022/12/05 01:19:24;;;;;;;14.70;12.23;;;;;;;8.75;95.53;100627.75;5045491;28;20219;-54
2022/12/05 01:21:52;;;;;;;16.57;12.30;;;;;;;8.96;94.91;100652.47;5049152;28;20257;-55
2022/12/05 01:24:21;;;;;;;16.93;12.73;;;;;;;8.99;94.39;100632.09;5051153;28;20265;-54
2022/12/05 01:26:48;;;;;;;15.33;12.10;;;;;;;8.99;94.35;100633.00;5050739;28;20605;-54
2022/12/05 01:29:17;;;;;;;17.10;12.17;;;;;;;9.11;94.11;100642.88;5050645;28;20195;-54
2022/12/05 01:31:44;;;;;;;15.77;12.07;;;;;;;9.14;93.83;100640.44;5046528;28;20227;-55
2022/12/05 01:34:13;;;;;;;14.57;12.70;;;;;;;9.13;94.11;100644.69;5050218;28;20196;-54
2022/12/05 01:36:40;;;;;;;18.63;12.93;;;;;;;9.16;94.01;100639.69;5032467;28;20189;-54
2022/12/05 01:39:10;;;;;;;15.97;11.77;;;;;;;9.14;93.64;100632.75;5032075;28;20220;-54
2022/12/05 01:41:39;;;;;;;16.67;11.97;;;;;;;9.12;93.30;100631.81;5032382;28;20204;-53
2022/12/05 01:44:08;;;;;;;15.70;11.60;;;;;;;8.98;93.58;100623.56;5032267;28;20646;-54
2022/12/05 01:46:36;;;;;;;17.77;12.00;;;;;;;8.94;94.18;100636.19;5032558;28;20204;-54
2022/12/05 01:49:09;;;;;;;14.73;11.70;;;;;;;8.88;94.37;100630.00;5032160;28;20639;-54
2022/12/05 01:51:39;;;;;;;15.07;12.20;;;;;;;8.88;94.45;100624.88;5032523;28;20226;-54
2022/12/05 01:54:07;;;;;;;14.93;12.70;;;;;;;8.84;94.63;100617.00;5038564;28;20203;-54
2022/12/05 01:56:37;;;;;;;16.33;12.37;;;;;;;8.80;95.08;100625.38;5052074;28;20199;-54
2022/12/05 01:59:07;;;;;;;16.67;12.57;;;;;;;8.85;95.38;100622.19;5052293;28;20640;-54
2022/12/05 02:01:35;;;;;;;15.10;12.10;;;;;;;8.76;95.73;100616.66;5051952;28;20654;-54
2022/12/05 02:04:03;;;;;;;18.23;15.88;;;;;;;8.71;96.45;100615.59;5051359;28;20431;-55
2022/12/05 02:06:30;;;;;;;29.90;23.23;;;;;;;8.78;96.36;100602.25;5053265;28;20203;-55
2022/12/05 02:08:56;;;;;;;17.53;13.93;;;;;;;8.76;95.84;100618.38;5056135;28;20609;-55
2022/12/05 02:11:26;;;;;;;14.87;12.13;;;;;;;8.63;96.40;100621.22;5055913;28;20187;-55
2022/12/05 02:14:14;;;;;;;16.00;13.10;;;;;;;8.72;96.37;100617.38;5056080;28;20196;-55
2022/12/05 02:16:55;;;;;;;17.60;13.60;;;;;;;8.78;95.69;100612.50;5055958;28;20195;-55
2022/12/05 02:19:52;;;;;;;15.73;12.67;;;;;;;8.85;95.16;100627.31;5055908;28;20223;-55
2022/12/05 02:22:37;;;;;;;14.50;12.13;;;;;;;8.76;94.78;100613.25;5056465;28;20188;-54
2022/12/05 02:25:42;;;;;;;14.97;12.10;;;;;;;8.67;94.99;100597.50;5055815;28;20188;-55
2022/12/05 02:28:32;;;;;;;13.63;11.87;;;;;;;8.76;94.43;100587.63;5051080;28;20680;-55
2022/12/05 02:31:08;;;;;;;18.43;12.63;;;;;;;8.90;94.71;100607.84;5056078;28;20192;-55
2022/12/05 02:33:41;;;;;;;17.27;13.77;;;;;;;8.92;94.82;100607.94;5055645;28;20192;-55
2022/12/05 02:36:14;;;;;;;17.70;13.60;;;;;;;8.95;94.49;100609.75;5055672;28;20197;-55
2022/12/05 02:38:46;;;;;;;19.03;12.27;;;;;;;8.98;94.66;100607.31;5056218;28;20192;-55
2022/12/05 02:41:22;;;;;;;16.67;12.37;;;;;;;8.99;93.99;100607.34;5055735;28;20188;-55
2022/12/05 02:43:55;;;;;;;18.77;13.57;;;;;;;8.97;94.07;100601.31;5055779;28;20188;-54
2022/12/05 02:46:27;;;;;;;15.47;13.60;;;;;;;9.02;94.35;100607.47;5055465;28;20224;-54
2022/12/05 02:48:59;;;;;;;19.30;14.20;;;;;;;9.05;94.38;100601.59;5055254;28;20199;-55
2022/12/05 02:51:33;;;;;;;21.73;16.27;;;;;;;9.08;94.24;100597.47;5055743;28;20238;-55
2022/12/05 02:54:08;;;;;;;17.13;14.20;;;;;;;9.08;93.89;100597.47;5055247;28;20195;-54
2022/12/05 02:56:37;;;;;;;17.43;13.57;;;;;;;8.95;94.78;100602.94;5055499;28;20188;-54
2022/12/05 02:59:04;;;;;;;21.13;15.50;;;;;;;8.92;95.30;100609.63;5055056;28;20219;-54
2022/12/05 03:01:33;;;;;;;18.27;14.80;;;;;;;8.88;95.44;100599.25;5055172;28;20261;-54
2022/12/05 03:04:02;;;;;;;20.17;14.23;;;;;;;8.80;95.93;100600.63;5055162;28;20195;-54
2022/12/05 03:06:34;;;;;;;19.25;16.75;;;;;;;8.76;96.17;100572.25;5045901;28;20993;-54
2022/12/05 03:09:05;;;;;;;17.97;14.83;;;;;;;9.00;95.32;100598.88;5035845;28;20203;-55
2022/12/05 03:11:38;;;;;;;17.13;13.43;;;;;;;9.08;94.21;100607.72;5035203;28;20246;-54
2022/12/05 03:14:11;;;;;;;20.97;14.20;;;;;;;9.14;93.95;100613.13;5035581;28;20614;-54
2022/12/05 03:16:43;;;;;;;20.43;13.93;;;;;;;9.17;94.11;100618.38;5034989;28;20606;-54
2022/12/05 03:19:12;;;;;;;17.50;14.67;;;;;;;9.21;93.94;100619.34;5033770;28;20216;-54
2022/12/05 03:21:45;;;;;;;16.43;13.80;;;;;;;9.20;93.96;100618.47;5034917;28;20189;-54
2022/12/05 03:24:14;;;;;;;21.30;13.27;;;;;;;9.20;93.82;100623.59;5034820;28;20189;-55
2022/12/05 03:26:49;;;;;;;14.87;12.17;;;;;;;9.21;94.08;100614.22;5034813;28;20193;-55
2022/12/05 03:29:31;;;;;;;20.63;13.17;;;;;;;9.09;93.53;100593.22;5034626;28;20196;-55
2022/12/05 03:32:07;;;;;;;16.40;12.60;;;;;;;9.20;93.68;100612.47;5034925;28;20212;-54
2022/12/05 03:34:49;;;;;;;22.77;13.17;;;;;;;9.18;93.69;100617.53;5034566;28;20192;-54
2022/12/05 03:37:26;;;;;;;15.80;11.93;;;;;;;9.23;93.69;100612.59;5034420;28;20207;-55
2022/12/05 03:40:04;;;;;;;16.77;12.33;;;;;;;9.24;93.92;100616.91;5049977;28;20218;-55
2022/12/05 03:42:35;;;;;;;15.33;12.20;;;;;;;9.24;93.88;100611.78;5074418;28;20218;-54
2022/12/05 03:45:07;;;;;;;14.97;12.13;;;;;;;9.29;93.59;100623.97;5074411;28;20192;-55
2022/12/05 03:47:42;;;;;;;15.83;12.43;;;;;;;9.26;93.64;100620.38;5064143;28;20199;-55
2022/12/05 03:50:15;;;;;;;16.57;13.50;;;;;;;9.21;93.47;100617.66;5074243;28;20195;-55
2022/12/05 03:52:46;;;;;;;16.27;12.17;;;;;;;9.21;94.16;100616.78;5065407;28;20224;-55
2022/12/05 03:55:14;;;;;;;16.13;11.93;;;;;;;9.23;94.00;100621.13;5054065;28;20273;-55
2022/12/05 03:57:46;;;;;;;16.00;12.97;;;;;;;9.24;93.67;100616.91;5053592;28;20196;-55
2022/12/05 04:00:18;;;;;;;14.53;12.20;;;;;;;9.13;94.45;100620.72;5054321;28;20215;-55
2022/12/05 04:02:53;;;;;;;15.10;11.60;;;;;;;9.15;94.63;100608.81;5052235;28;20192;-54
2022/12/05 04:05:24;;;;;;;16.50;12.70;;;;;;;9.17;93.84;100615.81;5051165;28;20191;-54
2022/12/05 04:07:56;;;;;;;25.53;17.00;;;;;;;9.18;93.74;100614.97;5048549;28;20195;-55
2022/12/05 04:10:28;;;;;;;20.23;14.67;;;;;;;9.19;93.71;100614.16;5042913;28;20278;-54
2022/12/05 04:12:58;;;;;;;18.10;13.47;;;;;;;9.22;93.96;100609.16;5033780;28;20243;-55
2022/12/05 04:17:01;;;;;;;19.27;12.23;;;;;;;9.16;93.80;100606.34;5034567;28;20200;-54
2022/12/05 04:18:20;;;;;;;19.23;12.03;;;;;;;9.19;94.14;100614.16;5051327;28;20605;-55
2022/12/05 04:23:33;;;;;;;14.07;11.43;;;;;;;9.20;94.22;100608.19;5012905;28;20567;-55
2022/12/05 04:26:06;;;;;;;17.60;12.37;;;;;;;9.14;94.03;100602.84;5033698;28;20192;-54
2022/12/05 04:28:39;;;;;;;17.83;12.83;;;;;;;9.20;94.22;100615.03;5033303;28;20698;-54
2022/12/05 04:31:10;;;;;;;14.90;11.47;;;;;;;9.22;94.27;100605.72;5033488;28;20200;-54
2022/12/05 04:33:44;;;;;;;16.67;12.23;;;;;;;9.22;94.14;100609.16;5053924;28;20194;-54
2022/12/05 04:36:16;;;;;;;16.20;11.90;;;;;;;9.21;94.19;100606.50;5064893;28;20215;-54
2022/12/05 04:38:48;;;;;;;15.13;11.93;;;;;;;9.18;94.57;100609.84;5073024;28;20180;-54
2022/12/05 04:41:20;;;;;;;19.03;11.53;;;;;;;9.22;94.54;100613.41;5073317;28;20640;-54
2022/12/05 04:43:48;;;;;;;16.00;11.73;;;;;;;9.23;94.24;100610.88;5061055;28;20188;-55
2022/12/05 04:46:19;;;;;;;17.50;11.50;;;;;;;9.17;94.33;100612.34;5041868;28;20200;-55
2022/12/05 04:48:52;;;;;;;16.07;11.67;;;;;;;9.14;94.18;100612.22;5033598;28;20200;-54
2022/12/05 04:51:24;;;;;;;19.20;13.40;;;;;;;9.14;94.35;100612.22;5033412;28;20647;-54
2022/12/05 04:53:55;;;;;;;15.63;12.27;;;;;;;9.02;94.56;100612.59;5033277;28;20196;-54
2022/12/05 04:56:27;;;;;;;16.70;12.13;;;;;;;9.04;95.53;100608.41;5034776;28;20207;-55
2022/12/05 04:58:54;;;;;;;25.40;12.00;;;;;;;9.11;94.99;100614.66;5052728;28;20184;-55
2022/12/05 05:01:25;;;;;;;21.67;14.40;;;;;;;9.16;94.89;100613.16;5052784;28;20220;-55
2022/12/05 05:03:58;;;;;;;21.63;13.50;;;;;;;9.13;94.95;100610.47;5053132;28;20196;-55
2022/12/05 05:06:25;;;;;;;22.00;14.50;;;;;;;9.20;94.28;100615.03;5052320;28;20211;-55
2022/12/05 05:08:54;;;;;;;26.55;17.00;;;;;;;9.28;94.55;100611.97;5065073;28;20476;-55
2022/12/05 05:11:24;;;;;;;19.37;14.27;;;;;;;9.35;93.89;100613.06;5072447;28;20195;-55
2022/12/05 05:13:51;;;;;;;21.37;14.77;;;;;;;9.30;93.50;100607.75;5072651;28;20202;-54
2022/12/05 05:16:20;;;;;;;17.07;12.57;;;;;;;9.30;93.37;100618.03;5072888;28;20203;-54
2022/12/05 05:18:48;;;;;;;20.13;16.03;;;;;;;9.29;93.64;100616.25;5072483;28;20187;-54
2022/12/05 05:21:19;;;;;;;21.90;15.47;;;;;;;9.27;93.66;100619.59;5072141;28;20298;-54
2022/12/05 05:23:46;;;;;;;24.03;14.90;;;;;;;9.33;93.76;100619.84;5054369;28;20193;-54
2022/12/05 05:26:13;;;;;;;25.20;14.07;;;;;;;9.29;93.59;100616.25;5044677;28;20203;-54
2022/12/05 05:28:40;;;;;;;21.20;14.10;;;;;;;9.17;93.91;100620.03;5036308;28;20199;-54
2022/12/05 05:31:07;;;;;;;19.73;14.20;;;;;;;9.18;94.46;100612.41;5036574;28;20687;-55
2022/12/05 05:33:35;;;;;;;29.57;20.43;;;;;;;9.15;94.93;100606.25;5051995;28;20275;-54
2022/12/05 05:36:04;;;;;;;24.40;14.60;;;;;;;9.16;94.85;100606.34;5051894;28;20192;-54
2022/12/05 05:38:35;;;;;;;22.17;14.87;;;;;;;8.71;94.73;100546.44;5051868;28;20194;-54
2022/12/05 05:41:03;;;;;;;24.33;15.77;;;;;;;9.12;95.26;100619.84;5052439;28;20246;-54
2022/12/05 05:43:29;;;;;;;20.93;14.53;;;;;;;9.07;95.66;100628.16;5031990;28;20196;-54
2022/12/05 05:45:56;;;;;;;22.30;14.53;;;;;;;9.05;96.14;100623.00;5031935;28;20651;-55
2022/12/05 05:48:23;;;;;;;22.15;14.30;;;;;;;9.13;95.31;100620.72;5031868;28;20470;-55
2022/12/05 05:50:50;;;;;;;22.00;15.00;;;;;;;9.17;94.66;100627.75;5032046;28;20196;-55
2022/12/05 05:53:17;;;;;;;24.10;16.07;;;;;;;9.17;94.61;100627.75;5031763;28;20200;-55
2022/12/05 05:55:45;;;;;;;25.03;14.03;;;;;;;9.21;94.63;100621.91;5031827;28;20651;-55
2022/12/05 05:58:12;;;;;;;23.97;15.57;;;;;;;9.29;94.48;100623.97;5063544;28;20195;-55
2022/12/05 06:00:38;;;;;;;22.00;14.50;;;;;;;9.29;94.10;100625.63;5071870;28;20617;-55
2022/12/05 06:03:05;;;;;;;22.00;14.90;;;;;;;9.30;94.20;100625.72;5071818;28;20188;-55
2022/12/05 06:05:32;;;;;;;29.70;14.73;;;;;;;9.33;94.33;100630.09;5071605;28;20658;-55
2022/12/05 06:07:59;;;;;;;20.10;13.33;;;;;;;9.35;93.77;100633.56;5071385;28;20660;-55
2022/12/05 06:10:26;;;;;;;20.33;14.47;;;;;;;9.31;93.72;100639.41;5071570;28;20191;-55
2022/12/05 06:12:54;;;;;;;24.33;15.80;;;;;;;9.31;93.74;100639.41;5071607;28;20241;-54
2022/12/05 06:15:20;;;;;;;31.37;15.03;;;;;;;9.31;94.06;100639.41;5071580;28;20188;-55
2022/12/05 06:17:47;;;;;;;45.77;25.33;;;;;;;9.34;93.98;100644.63;5061333;28;20272;-55
2022/12/05 06:20:14;;;;;;;42.53;20.53;;;;;;;9.36;93.80;100645.59;5051404;28;20239;-54
2022/12/05 06:22:41;;;;;;;37.10;20.83;;;;;;;9.35;93.77;100651.53;5051532;28;20266;-55
2022/12/05 06:25:09;;;;;;;33.43;15.90;;;;;;;9.38;93.92;100651.66;5071372;28;20201;-54
2022/12/05 06:27:36;;;;;;;29.03;16.60;;;;;;;9.30;94.03;100653.94;5057596;28;20224;-55
2022/12/05 06:30:06;;;;;;;25.00;14.53;;;;;;;9.30;94.32;100655.59;5048714;28;20207;-54
2022/12/05 06:32:32;;;;;;;30.57;16.07;;;;;;;9.32;94.34;100659.09;5052169;28;20188;-54
2022/12/05 06:34:59;;;;;;;30.23;16.93;;;;;;;9.30;94.34;100660.75;5050031;28;20204;-54
2022/12/05 06:37:26;;;;;;;37.33;16.33;;;;;;;9.33;93.96;100663.44;5051399;28;20192;-54
2022/12/05 06:39:58;;;;;;;30.90;15.23;;;;;;;9.35;94.14;100672.06;5050999;28;20681;-54
2022/12/05 06:42:25;;;;;;;31.80;15.50;;;;;;;9.38;94.40;100670.50;5051282;28;20642;-53
2022/12/05 06:44:52;;;;;;;24.10;13.67;;;;;;;9.42;94.02;100681.75;5050103;28;20192;-54
2022/12/05 06:47:20;;;;;;;29.67;14.67;;;;;;;9.43;93.62;100676.69;5049676;28;20567;-54
2022/12/05 06:49:47;;;;;;;28.00;15.50;;;;;;;9.49;93.55;100683.75;5048724;28;20188;-55
2022/12/05 06:52:13;;;;;;;37.30;15.47;;;;;;;9.58;93.33;100680.66;5049969;28;20235;-54
2022/12/05 06:54:40;;;;;;;26.93;13.67;;;;;;;9.38;92.82;100654.22;5054194;28;20621;-55
2022/12/05 06:57:08;;;;;;;33.90;16.37;;;;;;;9.65;92.55;100685.19;5054113;28;20192;-54
2022/12/05 06:59:35;;;;;;;40.07;17.97;;;;;;;9.69;92.51;100689.66;5054222;28;20184;-54
2022/12/05 07:02:01;;;;;;;41.07;17.57;;;;;;;9.76;92.41;100689.94;5054255;28;20188;-54
2022/12/05 07:04:29;;;;;;;50.28;21.17;;;;;;;9.80;92.12;100691.81;5053415;28;20465;-54
2022/12/05 07:06:56;;;;;;;47.27;18.53;;;;;;;9.76;91.06;100686.50;5054657;28;20199;-55
2022/12/05 07:09:44;;;;;;;43.43;20.63;;;;;;;9.84;90.71;100695.34;5063297;28;20210;-54
2022/12/05 07:12:11;;;;;;;38.53;16.67;;;;;;;9.84;90.34;100696.25;5061130;28;20192;-55
2022/12/05 07:14:38;;;;;;;45.27;17.03;;;;;;;9.92;90.75;100694.84;5058407;28;20196;-55
2022/12/05 07:17:05;;;;;;;37.90;17.40;;;;;;;9.90;89.93;100693.91;5051535;28;20614;-55
2022/12/05 07:19:33;;;;;;;29.70;15.83;;;;;;;9.94;89.75;100690.63;5054090;28;20188;-55
2022/12/05 07:22:00;;;;;;;38.40;18.43;;;;;;;9.96;89.67;100696.72;5053831;28;20320;-55
2022/12/05 07:24:27;;;;;;;38.50;19.40;;;;;;;9.99;90.34;100696.84;5053898;28;20189;-54
2022/12/05 07:26:54;;;;;;;39.33;21.03;;;;;;;9.98;90.54;100692.50;5053760;28;20246;-54
2022/12/05 07:29:21;;;;;;;44.93;21.50;;;;;;;9.88;89.83;100708.38;5053609;28;20697;-55
2022/12/05 07:31:47;;;;;;;43.80;21.20;;;;;;;9.75;90.93;100702.72;5053838;28;20188;-55
2022/12/05 07:34:14;;;;;;;40.67;22.83;;;;;;;9.85;91.00;100703.13;5053991;28;20189;-55
2022/12/05 07:36:42;;;;;;;37.40;22.33;;;;;;;9.90;90.61;100699.03;5074315;28;20192;-54
2022/12/05 07:39:09;;;;;;;34.60;21.60;;;;;;;9.90;90.35;100699.03;5074036;28;20199;-54
2022/12/05 07:41:36;;;;;;;42.27;24.83;;;;;;;9.99;90.55;100701.09;5052685;28;20216;-56
2022/12/05 07:44:03;;;;;;;40.20;26.57;;;;;;;10.01;90.23;100699.44;5051152;28;20219;-55
2022/12/05 07:46:29;;;;;;;39.97;26.93;;;;;;;9.81;90.22;100662.75;5053835;28;20267;-55
2022/12/05 07:48:56;;;;;;;41.97;26.50;;;;;;;10.05;89.58;100703.91;5051305;28;20196;-55
2022/12/05 07:51:23;;;;;;;44.17;27.13;;;;;;;10.01;89.12;100708.03;5050106;28;20694;-54
2022/12/05 07:53:52;;;;;;;42.87;27.90;;;;;;;9.99;89.22;100699.41;5053907;28;20246;-55
2022/12/05 07:56:18;;;;;;;48.13;27.53;;;;;;;9.97;89.68;100695.88;5053123;28;20259;-56
2022/12/05 07:58:47;;;;;;;40.67;28.70;;;;;;;10.02;89.96;100707.22;5053699;28;20192;-55
2022/12/05 08:01:16;;;;;;;53.07;30.20;;;;;;;10.13;89.19;100702.53;5053532;28;20239;-55
2022/12/05 08:03:44;;;;;;;45.13;28.17;;;;;;;10.15;89.06;100710.25;5053018;28;20210;-55
2022/12/05 08:06:13;;;;;;;50.07;28.03;;;;;;;9.34;88.89;100589.09;5053692;28;20650;-55
2022/12/05 08:08:40;;;;;;;50.63;29.50;;;;;;;10.08;89.19;100699.72;5053406;28;20196;-55
2022/12/05 08:11:10;;;;;;;46.03;29.43;;;;;;;10.12;88.58;100704.97;5051634;28;20192;-56
2022/12/05 08:13:37;;;;;;;50.07;27.77;;;;;;;10.16;88.81;100714.59;5062949;28;20697;-55
2022/12/05 08:16:06;;;;;;;47.63;30.93;;;;;;;10.15;88.44;100712.84;5072630;28;20210;-56
2022/12/05 08:18:39;;;;;;;47.13;29.03;;;;;;;10.03;88.20;100697.81;5073337;28;20221;-54
2022/12/05 08:21:09;;;;;;;48.37;29.50;;;;;;;9.98;88.72;100717.31;5071726;28;20219;-55
2022/12/05 08:23:37;;;;;;;58.97;31.70;;;;;;;9.97;89.11;100708.72;5072334;28;20244;-55
2022/12/05 08:26:06;;;;;;;54.63;32.17;;;;;;;10.13;88.47;100706.78;5070715;28;20257;-54
2022/12/05 08:28:34;;;;;;;51.70;31.40;;;;;;;10.20;88.36;100704.47;5071637;28;20190;-55
2022/12/05 08:31:05;;;;;;;54.00;31.47;;;;;;;10.32;87.24;100686.97;5050844;28;20696;-57
2022/12/05 08:33:32;;;;;;;45.90;31.23;;;;;;;10.24;87.27;100690.94;5032224;28;20482;-55
2022/12/05 08:36:01;;;;;;;48.70;31.37;;;;;;;10.32;87.53;100686.97;5049250;28;20682;-55
2022/12/05 08:38:28;;;;;;;50.00;31.60;;;;;;;10.48;87.21;100681.53;5046413;28;20204;-55
2022/12/05 08:40:54;;;;;;;59.13;37.23;;;;;;;10.61;86.59;100678.56;5051600;28;20227;-56
2022/12/05 08:43:21;;;;;;;53.47;33.27;;;;;;;10.65;85.96;100687.28;5049670;28;20204;-55
2022/12/05 08:45:51;;;;;;;51.00;31.43;;;;;;;10.49;85.72;100672.16;5032026;28;20659;-55
2022/12/05 08:48:18;;;;;;;52.93;31.10;;;;;;;10.60;85.78;100687.09;5031961;28;20658;-55
2022/12/05 08:50:45;;;;;;;46.37;29.57;;;;;;;10.64;85.75;100683.84;5032885;28;20257;-55
2022/12/05 08:53:12;;;;;;;42.53;27.60;;;;;;;10.55;85.82;100674.91;5032655;28;20221;-55
2022/12/05 08:55:40;;;;;;;43.00;27.33;;;;;;;10.53;85.81;100674.00;5032633;28;20647;-55
2022/12/05 08:58:06;;;;;;;49.97;27.57;;;;;;;10.39;86.10;100634.97;5033126;28;20193;-55
2022/12/05 09:00:33;;;;;;;53.10;31.60;;;;;;;10.55;85.54;100667.19;5032399;28;20449;-55
2022/12/05 09:03:01;;;;;;;46.70;27.53;;;;;;;10.57;85.03;100663.00;5032711;28;20197;-55
2022/12/05 09:05:28;;;;;;;45.87;29.53;;;;;;;10.62;84.41;100662.34;5032494;28;20215;-55
2022/12/05 09:07:55;;;;;;;49.93;27.60;;;;;;;10.60;84.35;100668.25;5032437;28;20196;-55
2022/12/05 09:10:22;;;;;;;45.63;28.37;;;;;;;10.65;83.73;100665.03;5032312;28;20189;-55
2022/12/05 09:12:49;;;;;;;43.03;28.33;;;;;;;10.30;83.34;100662.88;5042992;28;20199;-55
2022/12/05 09:15:16;;;;;;;50.10;29.53;;;;;;;10.28;83.96;100661.97;5049764;28;20196;-57
2022/12/05 09:17:43;;;;;;;56.93;33.17;;;;;;;10.43;83.52;100661.66;5067371;28;20222;-55
2022/12/05 09:20:12;;;;;;;48.13;31.70;;;;;;;10.42;83.60;100654.75;5072668;28;20565;-55
2022/12/05 09:22:39;;;;;;;49.13;31.37;;;;;;;10.46;83.68;100654.06;5066827;28;20228;-55
2022/12/05 09:25:07;;;;;;;45.40;32.23;;;;;;;10.57;83.73;100645.03;5042537;28;20234;-55
2022/12/05 09:27:34;;;;;;;41.03;30.20;;;;;;;10.60;83.46;100637.41;5050627;28;20627;-55
2022/12/05 09:30:01;;;;;;;42.07;29.60;;;;;;;10.61;83.15;100640.03;5072128;28;20192;-56
2022/12/05 09:32:28;;;;;;;50.63;33.43;;;;;;;10.65;82.88;100635.88;5069169;28;20589;-55
2022/12/05 09:34:54;;;;;;;53.67;35.57;;;;;;;10.54;82.95;100630.38;5070160;28;20249;-54
2022/12/05 09:37:22;;;;;;;62.27;39.80;;;;;;;10.63;82.84;100630.66;5070252;28;20192;-55
2022/12/05 09:39:49;;;;;;;73.97;53.10;;;;;;;10.79;82.32;100626.94;5060258;28;20443;-56
2022/12/05 09:42:37;;;;;;;64.87;47.30;;;;;;;10.86;80.97;100618.59;5051849;28;20231;-55
2022/12/05 09:45:25;;;;;;;68.90;47.67;;;;;;;11.04;80.68;100624.31;5052203;28;20191;-55
2022/12/05 09:47:57;;;;;;;68.20;48.40;;;;;;;11.17;80.23;100623.03;5048018;28;20662;-55
2022/12/05 09:50:27;;;;;;;66.40;44.63;;;;;;;10.91;80.79;100611.00;5050647;28;20196;-55
2022/12/05 09:53:11;;;;;;;58.63;40.77;;;;;;;10.98;80.69;100616.44;5062932;28;20285;-54
2022/12/05 09:55:45;;;;;;;51.17;36.53;;;;;;;10.89;81.32;100595.56;5048979;28;20192;-54
2022/12/05 09:58:21;;;;;;;43.37;30.23;;;;;;;11.04;80.38;100616.59;5053685;28;20195;-53
2022/12/05 10:00:51;;;;;;;42.00;28.70;;;;;;;10.96;79.43;100607.78;5049326;28;20197;-54
2022/12/05 10:03:25;;;;;;;35.53;27.10;;;;;;;11.06;78.70;100609.84;5050653;28;20188;-54
2022/12/05 10:06:02;;;;;;;34.60;26.80;;;;;;;11.12;nan;100615.16;5049641;28;20191;-56
2022/12/05 10:08:38;;;;;;;35.40;26.00;;;;;;;11.15;78.89;100615.25;5046049;28;20191;-55
2022/12/05 10:11:14;;;;;;;34.97;26.53;;;;;;;11.14;78.33;100612.66;5048084;28;20200;-55
2022/12/05 10:13:47;;;;;;;42.60;28.60;;;;;;;11.21;77.79;100606.84;5060464;28;20187;-54
2022/12/05 10:16:22;;;;;;;43.00;28.10;;;;;;;11.18;77.29;100614.47;5061940;28;20211;-55
2022/12/05 10:18:53;;;;;;;36.83;26.67;;;;;;;11.21;76.94;100618.03;5071609;28;20720;-55
2022/12/05 10:21:25;;;;;;;36.57;24.97;;;;;;;11.21;76.28;100617.13;5072223;28;20222;-55
2022/12/05 10:23:56;;;;;;;34.67;24.03;;;;;;;11.30;75.32;100609.72;5071706;28;20191;-55
2022/12/05 10:26:25;;;;;;;36.80;25.80;;;;;;;11.41;74.99;100610.94;5071496;28;20252;-55
2022/12/05 10:28:57;;;;;;;39.13;26.93;;;;;;;11.46;74.90;100611.06;5073306;28;20196;-55
2022/12/05 10:31:29;;;;;;;38.77;29.37;;;;;;;11.52;73.95;100608.66;5074983;28;20195;-55
2022/12/05 10:34:10;;;;;;;43.10;29.43;;;;;;;11.48;73.98;100607.69;5075215;28;20654;-55
2022/12/05 10:36:36;;;;;;;37.70;28.33;;;;;;;11.42;73.29;100602.38;5052109;28;20192;-54
2022/12/05 10:39:05;;;;;;;44.83;34.80;;;;;;;11.22;74.09;100599.19;5052492;28;20450;-54
2022/12/05 10:41:34;;;;;;;39.63;30.43;;;;;;;11.32;73.52;100596.91;5053498;28;20208;-54
2022/12/05 10:44:00;;;;;;;39.53;29.30;;;;;;;11.54;73.60;100587.28;5054439;28;20705;-55
2022/12/05 10:46:28;;;;;;;43.37;30.30;;;;;;;11.62;73.06;100590.13;5054517;28;20287;-54
2022/12/05 10:48:55;;;;;;;42.70;29.00;;;;;;;11.73;71.96;100586.16;5066377;28;20203;-54
2022/12/05 10:51:28;;;;;;;39.27;28.97;;;;;;;11.57;72.05;100558.19;5068550;28;20228;-55
2022/12/05 10:53:56;;;;;;;38.97;30.73;;;;;;;11.74;71.59;100575.03;5054478;28;20220;-54
2022/12/05 10:56:42;;;;;;;44.73;32.30;;;;;;;11.87;71.73;100579.72;5055126;28;20216;-54
2022/12/05 10:59:10;;;;;;;39.43;29.50;;;;;;;11.96;70.62;100569.66;5055067;28;20192;-54
2022/12/05 11:01:43;;;;;;;40.73;28.20;;;;;;;11.92;69.52;100565.25;5054770;28;20223;-54
2022/12/05 11:04:20;;;;;;;36.97;26.60;;;;;;;11.96;69.70;100568.78;5054694;28;20203;-55
2022/12/05 11:06:53;;;;;;;33.80;25.30;;;;;;;11.84;68.44;100556.44;5055360;28;20242;-54
2022/12/05 11:09:22;;;;;;;38.20;25.70;;;;;;;11.78;69.76;100549.41;5054675;28;20192;-54
2022/12/05 11:12:06;;;;;;;40.77;27.60;;;;;;;11.88;69.95;100544.53;5054357;28;20655;-54
2022/12/05 11:14:35;;;;;;;34.57;24.30;;;;;;;11.90;69.24;100548.91;5051261;28;20207;-54
2022/12/05 11:17:03;;;;;;;35.43;23.90;;;;;;;11.88;68.80;100552.25;5053341;28;20192;-55
2022/12/05 11:19:32;;;;;;;23.40;17.20;;;;;;;11.89;66.73;100539.44;5053315;28;20199;-55
2022/12/05 11:22:00;;;;;;;24.33;17.67;;;;;;;11.96;67.65;100540.47;5053595;28;20211;-55
2022/12/05 11:24:28;;;;;;;25.03;17.97;;;;;;;11.93;66.14;100538.69;5054683;28;20199;-54
2022/12/05 11:26:56;;;;;;;23.67;15.13;;;;;;;11.64;65.20;100481.22;5054579;28;20649;-54
2022/12/05 11:29:34;;;;;;;20.67;15.20;;;;;;;11.93;64.83;100535.22;5052561;28;20724;-54